ニューヨーク/JFK の空港の天気 - METARとTAF

ジョン・F・ケネディ国際空港 ( KJFK / JFK ) - アメリカ ニューヨーク州ニューヨーク
飛行場実況気象(Metar)
観測時間08/13 17:51 EDT (08/13 21:51 UTC)
風向・風速不定 2m/s
視程10km以上
天気現象
全天の4割程度の雲 雲底高度 2130m
全天の4割程度の雲 雲底高度 6100m
気温26.7℃
湿度31%
気圧1017.4hPa
METARKJFK 132151Z VRB04KT 10SM SCT070 SCT200 27/08 A3005 RMK AO2 SLP174 T02670083
過去の天気等 Google飛行場航空写真 Wunderground天気予報

過去48時間のMETAR

飛行場予報(TAF)
発表時間: 8/13 17:12 EDT (8/13 21:12 UTC)
予報対象時間: 13日17時 EDT ~ 14日20時 EDT
風向・風速北北東 6m/s
視程10km以上
全天の4割程度の雲 雲底高度 2130m
13日19時 EDT から
風向・風速南 3m/s
視程10km以上
少しの雲 雲底高度 2130m
13日21時 EDT から
風向・風速不定 3m/s
視程10km以上
なし
14日2時 EDT から
風向・風速西南西 3m/s
視程10km以上
なし
14日10時 EDT から
風向・風速南南西 3m/s
視程10km以上
なし
KJFK 132112Z 1321/1424 03012KT P6SM SCT070
FM132300 17006KT P6SM FEW070
FM140100 VRB05KT P6SM SKC
FM140600 24005KT P6SM SKC
FM141400 20005KT P6SM SKC